Time;durP1;ratioP1;P1;durP2;ratioP2;P2;SDS_P1;SDS_P2;PMS_P1;PMS_P2;Temp;Humidity;BMP_temperature;BMP_pressure;BME280_temperature;BME280_humidity;BME280_pressure;Samples;Min_cycle;Max_cycle;Signal;HPM_P1;HPM_P2
2022/01/18 00:01:29;;;;;;;53.53;23.77;;;1.80;99.90;;;;;;5032254;28;20248;-65
2022/01/18 00:04:00;;;;;;;51.70;23.47;;;1.70;99.90;;;;;;5047792;28;20236;-65
2022/01/18 00:06:28;;;;;;;48.03;23.83;;;1.70;99.90;;;;;;5043965;28;20224;-65
2022/01/18 00:08:57;;;;;;;54.60;26.97;;;1.70;99.90;;;;;;5047297;28;20623;-65
2022/01/18 00:11:28;;;;;;;65.17;33.83;;;1.70;99.90;;;;;;5032155;28;20194;-65
2022/01/18 00:14:02;;;;;;;59.33;26.77;;;1.80;99.90;;;;;;5041840;28;20251;-65
2022/01/18 00:16:38;;;;;;;50.83;25.30;;;1.70;99.90;;;;;;5047663;28;20208;-65
2022/01/18 00:19:10;;;;;;;48.83;24.60;;;1.70;99.90;;;;;;5039986;28;20209;-65
2022/01/18 00:22:03;;;;;;;56.20;24.43;;;1.60;99.90;;;;;;5037517;28;20221;-65
2022/01/18 00:24:31;;;;;;;56.87;25.83;;;1.50;99.90;;;;;;5042324;28;20654;-65
2022/01/18 00:27:00;;;;;;;57.40;25.43;;;1.50;99.90;;;;;;5051301;28;20272;-65
2022/01/18 00:29:29;;;;;;;64.70;27.30;;;1.40;99.90;;;;;;5033736;28;20692;-65
2022/01/18 00:32:10;;;;;;;71.43;31.43;;;1.40;99.90;;;;;;5047491;28;20204;-66
2022/01/18 00:34:40;;;;;;;58.93;25.13;;;1.40;99.90;;;;;;5037814;28;20771;-65
2022/01/18 00:37:28;;;;;;;72.03;29.60;;;1.40;99.90;;;;;;5039540;28;20221;-65
2022/01/18 00:39:56;;;;;;;65.07;27.60;;;1.40;99.90;;;;;;5047618;28;20721;-65
2022/01/18 00:42:25;;;;;;;59.60;28.90;;;1.50;99.90;;;;;;5048507;28;20220;-65
2022/01/18 00:44:53;;;;;;;71.17;31.40;;;1.60;99.90;;;;;;5046142;28;20226;-65
2022/01/18 00:47:23;;;;;;;60.73;29.00;;;1.60;99.90;;;;;;5045396;28;20755;-65
2022/01/18 00:49:59;;;;;;;67.77;29.03;;;1.70;99.90;;;;;;5051616;28;20815;-65
2022/01/18 00:52:29;;;;;;;73.13;32.50;;;1.70;99.90;;;;;;5042302;28;20232;-65
2022/01/18 00:54:59;;;;;;;74.23;31.00;;;1.70;99.90;;;;;;5046753;28;20754;-65
2022/01/18 00:57:28;;;;;;;70.83;29.87;;;1.80;99.90;;;;;;5041552;28;20974;-65
2022/01/18 00:59:56;;;;;;;68.73;28.40;;;1.80;99.90;;;;;;5046019;28;20865;-65
2022/01/18 01:02:26;;;;;;;58.73;27.17;;;1.80;99.90;;;;;;5046980;28;20312;-65
2022/01/18 01:04:56;;;;;;;75.43;29.50;;;1.80;99.90;;;;;;5046251;28;20251;-65
2022/01/18 01:07:25;;;;;;;71.10;30.93;;;1.90;99.90;;;;;;5040789;28;20684;-65
2022/01/18 01:09:54;;;;;;;72.57;30.33;;;1.90;99.90;;;;;;5045182;28;20201;-65
2022/01/18 01:12:26;;;;;;;65.70;27.63;;;1.90;99.90;;;;;;5047724;28;20181;-65
2022/01/18 01:15:01;;;;;;;111.47;26.83;;;2.00;99.90;;;;;;5040704;28;20208;-65
2022/01/18 01:17:42;;;;;;;60.07;23.47;;;2.00;99.90;;;;;;5047282;28;20188;-65
2022/01/18 01:42:58;;;;;;;184.53;38.57;;;1.30;99.90;;;;;;5048246;28;20269;-65
2022/01/18 01:45:30;;;;;;;309.70;66.57;;;1.50;99.90;;;;;;5041144;28;20208;-65
2022/01/18 01:48:00;;;;;;;369.33;66.30;;;1.60;99.90;;;;;;5048176;28;20185;-65
2022/01/18 01:50:42;;;;;;;265.70;55.27;;;1.60;99.90;;;;;;5041537;28;20220;-65
2022/01/18 01:53:11;;;;;;;197.07;47.13;;;1.60;99.90;;;;;;5048272;28;20219;-65
2022/01/18 01:55:40;;;;;;;252.50;51.87;;;1.60;99.90;;;;;;5052462;28;20266;-65
2022/01/18 01:58:09;;;;;;;140.10;41.37;;;1.70;99.90;;;;;;5046339;28;20239;-65
2022/01/18 02:00:44;;;;;;;128.87;39.17;;;1.70;99.90;;;;;;5046857;28;20193;-65
2022/01/18 02:03:13;;;;;;;116.03;36.93;;;1.70;99.90;;;;;;5052398;28;20272;-65
2022/01/18 02:05:44;;;;;;;102.70;33.97;;;1.70;99.90;;;;;;5042393;28;20284;-65
2022/01/18 02:08:13;;;;;;;102.60;33.10;;;1.80;99.90;;;;;;5039398;28;20937;-65
2022/01/18 02:10:43;;;;;;;95.30;32.07;;;1.80;99.90;;;;;;5046793;28;20205;-65
2022/01/18 02:13:13;;;;;;;69.90;27.03;;;1.80;99.90;;;;;;5038559;28;20192;-65
2022/01/18 02:15:58;;;;;;;74.90;29.20;;;1.80;99.90;;;;;;5048919;28;20203;-65
2022/01/18 02:24:02;;;;;;;86.57;32.67;;;2.00;99.90;;;;;;5041644;28;20294;-65
2022/01/18 02:26:31;;;;;;;68.93;28.23;;;2.00;99.90;;;;;;5046254;28;20200;-65
2022/01/18 02:29:00;;;;;;;71.20;28.43;;;2.00;99.90;;;;;;5047454;28;20275;-65
2022/01/18 02:31:30;;;;;;;71.77;30.13;;;2.10;99.90;;;;;;5046959;28;20210;-65
2022/01/18 02:34:02;;;;;;;66.33;28.97;;;2.10;99.90;;;;;;5048184;28;20227;-65
2022/01/18 02:36:33;;;;;;;60.10;27.40;;;2.20;99.90;;;;;;5043902;28;20303;-66
2022/01/18 02:39:02;;;;;;;60.17;29.40;;;2.20;99.90;;;;;;5048188;28;20247;-65
2022/01/18 02:41:31;;;;;;;49.90;26.70;;;2.20;99.90;;;;;;5042891;28;20193;-65
2022/01/18 02:44:04;;;;;;;58.40;25.93;;;2.20;99.90;;;;;;5052943;28;20217;-65
2022/01/18 02:46:33;;;;;;;46.30;23.83;;;2.30;99.90;;;;;;5049779;28;20282;-65
2022/01/18 02:49:03;;;;;;;61.27;27.23;;;2.30;99.90;;;;;;5046754;28;20227;-65
2022/01/18 02:51:33;;;;;;;63.57;26.20;;;2.30;99.90;;;;;;5046281;28;20221;-65
2022/01/18 02:54:04;;;;;;;53.43;25.77;;;2.30;99.90;;;;;;5048180;28;20200;-65
2022/01/18 02:56:36;;;;;;;61.13;26.00;;;2.40;99.90;;;;;;5044205;28;20208;-65
2022/01/18 02:59:16;;;;;;;52.00;25.03;;;2.40;99.90;;;;;;5043341;28;20209;-66
2022/01/18 03:04:33;;;;;;;64.73;26.90;;;2.40;99.90;;;;;;5054929;28;20203;-65
2022/01/18 03:07:02;;;;;;;46.37;23.77;;;2.50;99.90;;;;;;5044557;28;20196;-65
2022/01/18 03:09:31;;;;;;;44.30;21.70;;;2.50;99.90;;;;;;5049091;28;20259;-65
2022/01/18 03:11:59;;;;;;;46.33;24.03;;;2.50;99.90;;;;;;5045319;28;20189;-66
2022/01/18 03:14:29;;;;;;;42.70;22.27;;;2.60;99.90;;;;;;5049778;28;20663;-65
2022/01/18 03:16:57;;;;;;;46.23;24.60;;;2.60;99.90;;;;;;5047409;28;20201;-65
2022/01/18 03:19:26;;;;;;;51.07;24.00;;;2.60;99.90;;;;;;5052291;28;20243;-65
2022/01/18 03:21:56;;;;;;;44.53;21.90;;;2.70;99.90;;;;;;5047265;28;20204;-65
2022/01/18 03:30:03;;;;;;;42.80;21.97;;;2.70;99.90;;;;;;5042852;28;20664;-65
2022/01/18 03:32:34;;;;;;;48.20;23.87;;;2.70;99.90;;;;;;5047728;28;20220;-65
2022/01/18 03:35:05;;;;;;;41.07;22.53;;;2.80;99.90;;;;;;5048224;28;20663;-65
2022/01/18 03:37:34;;;;;;;44.17;23.27;;;2.80;99.90;;;;;;5048917;28;20208;-64
2022/01/18 03:40:05;;;;;;;37.33;23.03;;;2.80;99.90;;;;;;5045930;28;20707;-65
2022/01/18 03:42:38;;;;;;;45.07;23.03;;;2.80;99.90;;;;;;5027818;28;20204;-65
2022/01/18 03:45:09;;;;;;;51.10;23.10;;;2.80;99.90;;;;;;5047072;28;20257;-65
2022/01/18 03:47:38;;;;;;;40.33;21.30;;;2.90;99.90;;;;;;5044648;28;20214;-65
2022/01/18 03:50:08;;;;;;;36.47;21.03;;;2.90;99.90;;;;;;5047882;28;20196;-65
2022/01/18 03:52:37;;;;;;;43.70;21.60;;;2.90;99.90;;;;;;5045036;28;20201;-65
2022/01/18 03:55:09;;;;;;;40.00;21.63;;;2.90;99.90;;;;;;5037504;28;20189;-68
2022/01/18 03:57:38;;;;;;;40.73;22.20;;;2.90;99.90;;;;;;5042604;28;20188;-65
2022/01/18 04:00:10;;;;;;;36.63;22.00;;;3.00;99.90;;;;;;5042189;28;20295;-65
2022/01/18 04:02:39;;;;;;;41.47;22.33;;;2.90;99.90;;;;;;5039842;28;20293;-65
2022/01/18 04:05:08;;;;;;;40.07;22.40;;;3.00;99.90;;;;;;5044984;28;20370;-65
2022/01/18 04:07:37;;;;;;;41.20;22.97;;;3.00;99.90;;;;;;5044445;28;20201;-65
2022/01/18 04:10:08;;;;;;;51.10;25.50;;;3.00;99.90;;;;;;5048807;28;20204;-66
2022/01/18 04:12:39;;;;;;;51.17;24.93;;;3.00;99.90;;;;;;5044912;28;20218;-65
2022/01/18 04:15:10;;;;;;;49.93;25.77;;;3.00;99.90;;;;;;5039485;28;20278;-65
2022/01/18 04:26:02;;;;;;;51.97;24.73;;;3.10;99.90;;;;;;5044742;28;20296;-65
2022/01/18 04:28:40;;;;;;;56.60;25.57;;;3.20;99.90;;;;;;5041808;28;20225;-65
2022/01/18 04:31:11;;;;;;;58.10;26.30;;;3.20;99.90;;;;;;5046236;28;20251;-65
2022/01/18 04:33:40;;;;;;;45.63;23.47;;;3.20;99.90;;;;;;5042223;28;20270;-65
2022/01/18 04:36:10;;;;;;;56.83;26.67;;;3.20;99.90;;;;;;5042766;28;20228;-65
2022/01/18 04:38:39;;;;;;;55.47;27.80;;;3.20;99.90;;;;;;5047946;28;20201;-65
2022/01/18 04:41:12;;;;;;;69.70;28.90;;;3.20;99.90;;;;;;5050115;28;20208;-66
2022/01/18 04:43:51;;;;;;;50.63;25.30;;;3.20;99.90;;;;;;5048107;28;20262;-65
2022/01/18 04:49:11;;;;;;;54.20;25.47;;;3.30;99.90;;;;;;5056048;28;20219;-66
2022/01/18 04:51:40;;;;;;;54.67;27.03;;;3.30;99.90;;;;;;5043959;28;20698;-65
2022/01/18 04:54:10;;;;;;;61.93;28.10;;;3.30;99.90;;;;;;5043222;28;20211;-65
2022/01/18 04:59:26;;;;;;;60.30;28.23;;;3.30;99.90;;;;;;5046390;28;20197;-65
2022/01/18 05:01:55;;;;;;;55.43;27.50;;;3.30;99.90;;;;;;5043984;28;20232;-65
2022/01/18 05:04:24;;;;;;;57.03;26.90;;;3.30;99.90;;;;;;5043187;28;20211;-66
2022/01/18 05:07:00;;;;;;;59.47;28.17;;;3.30;99.90;;;;;;5042674;28;20193;-65
2022/01/18 05:09:29;;;;;;;48.53;24.87;;;3.40;99.90;;;;;;5045279;28;20207;-66
2022/01/18 05:12:05;;;;;;;55.50;26.67;;;3.30;99.90;;;;;;5046083;28;20235;-65
2022/01/18 05:14:36;;;;;;;49.67;26.83;;;3.40;99.90;;;;;;5041000;28;20189;-65
2022/01/18 05:17:14;;;;;;;55.43;27.67;;;3.40;99.90;;;;;;5046058;28;20197;-66
2022/01/18 05:19:55;;;;;;;51.67;26.73;;;3.40;99.90;;;;;;5043387;28;20258;-65
2022/01/18 05:25:09;;;;;;;65.30;29.03;;;3.40;99.90;;;;;;5042741;28;20343;-66
2022/01/18 05:27:39;;;;;;;58.93;27.77;;;3.40;99.90;;;;;;5042390;28;20207;-65
2022/01/18 05:30:08;;;;;;;58.10;27.63;;;3.40;99.90;;;;;;5042659;28;20274;-66
2022/01/18 05:32:37;;;;;;;58.13;27.37;;;3.40;99.90;;;;;;5040548;28;20298;-65
2022/01/18 05:35:06;;;;;;;64.57;28.80;;;3.50;99.90;;;;;;5043941;28;20193;-65
2022/01/18 05:37:35;;;;;;;61.13;28.67;;;3.50;99.90;;;;;;5040858;28;20208;-65
2022/01/18 05:40:06;;;;;;;59.00;28.67;;;3.50;99.90;;;;;;5028972;28;20265;-66
2022/01/18 05:42:35;;;;;;;60.40;28.03;;;3.40;99.90;;;;;;5044769;28;20288;-65
2022/01/18 05:45:08;;;;;;;57.87;27.10;;;3.50;99.90;;;;;;5042051;28;20234;-65
2022/01/18 05:47:38;;;;;;;70.23;32.33;;;3.50;99.90;;;;;;5046363;28;20236;-65
2022/01/18 05:50:08;;;;;;;86.90;37.07;;;3.50;99.90;;;;;;5037629;28;20193;-65
2022/01/18 05:52:38;;;;;;;76.03;31.70;;;3.50;99.90;;;;;;5037766;28;20196;-65
2022/01/18 05:55:07;;;;;;;80.37;33.53;;;3.50;99.90;;;;;;5046197;28;20262;-65
2022/01/18 05:57:38;;;;;;;70.57;31.07;;;3.50;99.90;;;;;;5026089;28;20196;-65
2022/01/18 06:00:12;;;;;;;73.47;31.10;;;3.50;99.90;;;;;;5047334;28;20560;-65
2022/01/18 06:02:47;;;;;;;84.50;31.53;;;3.50;99.90;;;;;;5040676;28;20196;-66
2022/01/18 06:08:02;;;;;;;76.17;30.00;;;3.50;99.90;;;;;;5039371;28;20662;-66
2022/01/18 06:10:31;;;;;;;85.33;31.73;;;3.50;99.90;;;;;;5044767;28;20240;-66
2022/01/18 06:13:01;;;;;;;81.33;31.47;;;3.50;99.90;;;;;;5040723;28;20204;-65
2022/01/18 06:15:32;;;;;;;73.37;32.47;;;3.60;99.90;;;;;;5044104;28;20200;-65
2022/01/18 06:18:00;;;;;;;74.40;30.50;;;3.50;99.90;;;;;;5044246;28;20192;-65
2022/01/18 06:20:29;;;;;;;83.70;33.10;;;3.50;99.90;;;;;;5045880;28;20277;-65
2022/01/18 06:22:58;;;;;;;73.80;31.50;;;3.50;99.90;;;;;;5043383;28;20568;-66
2022/01/18 06:25:31;;;;;;;81.97;32.73;;;3.50;99.90;;;;;;5044750;28;20204;-65
2022/01/18 06:28:00;;;;;;;77.37;30.17;;;3.50;99.90;;;;;;5044760;28;20195;-66
2022/01/18 06:30:32;;;;;;;69.13;29.73;;;3.50;99.90;;;;;;5042483;28;20208;-66
2022/01/18 06:33:01;;;;;;;96.90;33.20;;;3.50;99.90;;;;;;5041996;28;20619;-65
2022/01/18 06:35:30;;;;;;;112.63;32.83;;;3.50;99.90;;;;;;5043266;28;20192;-65
2022/01/18 06:37:58;;;;;;;168.50;44.13;;;3.50;99.90;;;;;;5022944;28;20297;-65
2022/01/18 06:40:27;;;;;;;150.73;38.03;;;3.50;99.90;;;;;;5038919;28;20669;-65
2022/01/18 06:42:56;;;;;;;103.63;37.47;;;3.50;99.90;;;;;;5044783;28;20276;-66
2022/01/18 06:45:24;;;;;;;141.17;42.20;;;3.60;99.90;;;;;;5040435;28;20303;-65
2022/01/18 06:47:54;;;;;;;151.90;45.93;;;3.60;99.90;;;;;;5040569;28;20695;-66
2022/01/18 06:50:22;;;;;;;203.53;56.67;;;3.60;99.90;;;;;;5048302;28;20284;-65
2022/01/18 06:52:57;;;;;;;169.37;45.03;;;3.60;99.90;;;;;;5048789;28;20724;-65
2022/01/18 06:55:27;;;;;;;177.63;44.13;;;3.60;99.90;;;;;;5043813;28;20681;-65
2022/01/18 06:57:57;;;;;;;117.83;38.83;;;3.60;99.90;;;;;;5046793;28;20201;-65
2022/01/18 07:00:25;;;;;;;123.37;37.37;;;3.60;99.90;;;;;;5036921;28;20200;-65
2022/01/18 07:02:55;;;;;;;137.13;38.03;;;3.60;99.90;;;;;;5043709;28;20218;-66
2022/01/18 07:05:24;;;;;;;111.50;34.17;;;3.70;99.90;;;;;;5036386;28;20718;-66
2022/01/18 07:07:52;;;;;;;135.30;35.40;;;3.70;99.90;;;;;;5042315;28;20271;-65
2022/01/18 07:10:23;;;;;;;112.37;34.00;;;3.70;99.90;;;;;;5051385;28;20201;-66
2022/01/18 07:12:56;;;;;;;126.83;36.53;;;3.70;99.90;;;;;;5041331;28;20544;-66
2022/01/18 07:15:24;;;;;;;109.77;33.03;;;3.70;99.90;;;;;;5038122;28;20698;-66
2022/01/18 07:17:53;;;;;;;135.93;36.43;;;3.70;99.90;;;;;;5043406;28;20326;-65
2022/01/18 07:20:23;;;;;;;149.13;38.63;;;3.80;99.90;;;;;;5046197;28;20256;-66
2022/01/18 07:22:51;;;;;;;135.57;36.40;;;3.70;99.90;;;;;;5038564;28;20607;-65
2022/01/18 07:25:20;;;;;;;126.10;35.30;;;3.60;99.90;;;;;;5050444;28;20224;-66
2022/01/18 07:27:48;;;;;;;123.17;35.57;;;3.60;99.90;;;;;;5042866;28;20192;-66
2022/01/18 07:30:17;;;;;;;144.50;38.03;;;3.70;99.90;;;;;;5045105;28;20212;-65
2022/01/18 07:32:45;;;;;;;193.60;39.87;;;3.70;99.90;;;;;;5041482;28;20231;-65
2022/01/18 07:35:14;;;;;;;109.70;31.87;;;3.70;99.90;;;;;;5039622;28;20227;-65
2022/01/18 07:37:43;;;;;;;170.93;38.97;;;3.60;99.90;;;;;;5038642;28;20283;-66
2022/01/18 07:40:12;;;;;;;151.00;38.37;;;3.70;99.90;;;;;;5035455;28;20201;-66
2022/01/18 07:42:40;;;;;;;156.47;38.67;;;3.70;99.90;;;;;;5047779;28;20266;-66
2022/01/18 07:45:10;;;;;;;113.37;34.10;;;3.70;99.90;;;;;;5045994;28;20244;-65
2022/01/18 07:47:38;;;;;;;106.20;34.60;;;3.70;99.90;;;;;;5039569;28;20296;-65
2022/01/18 07:50:08;;;;;;;129.30;36.07;;;3.70;99.90;;;;;;5050147;28;20605;-65
2022/01/18 07:52:36;;;;;;;151.97;40.20;;;3.70;99.90;;;;;;5044247;28;20250;-65
2022/01/18 07:55:07;;;;;;;150.83;39.97;;;3.80;99.90;;;;;;5042535;28;20579;-65
2022/01/18 07:57:40;;;;;;;163.53;39.80;;;3.80;99.90;;;;;;5043932;28;20596;-65
2022/01/18 08:00:10;;;;;;;118.43;37.57;;;3.80;99.90;;;;;;5043682;28;20744;-67
2022/01/18 08:02:39;;;;;;;173.53;40.90;;;3.90;99.90;;;;;;5045142;28;20212;-67
2022/01/18 08:05:09;;;;;;;190.93;42.43;;;3.90;99.90;;;;;;5043479;28;20247;-68
2022/01/18 08:07:38;;;;;;;151.67;39.70;;;3.90;99.90;;;;;;5040198;28;20707;-67
2022/01/18 08:10:10;;;;;;;169.90;41.27;;;3.90;99.90;;;;;;5039707;28;20759;-67
2022/01/18 08:12:39;;;;;;;136.93;39.07;;;4.00;99.90;;;;;;5046724;28;20227;-65
2022/01/18 08:15:16;;;;;;;156.50;40.83;;;4.00;99.90;;;;;;5042851;28;20283;-66
2022/01/18 08:17:54;;;;;;;141.03;36.33;;;4.00;99.90;;;;;;5040291;28;20687;-65
2022/01/18 08:20:25;;;;;;;187.37;42.70;;;4.00;99.90;;;;;;5024582;28;20189;-66
2022/01/18 08:22:54;;;;;;;196.83;42.37;;;4.10;99.90;;;;;;5044019;28;20743;-66
2022/01/18 08:25:24;;;;;;;199.47;43.57;;;4.10;99.90;;;;;;5047280;28;20695;-65
2022/01/18 08:27:54;;;;;;;175.80;42.90;;;4.10;99.90;;;;;;5043307;28;20534;-65
2022/01/18 08:30:23;;;;;;;172.23;40.07;;;4.20;99.90;;;;;;5018861;28;20552;-66
2022/01/18 08:32:54;;;;;;;206.37;49.30;;;4.20;99.90;;;;;;5035569;28;20236;-66
2022/01/18 08:35:24;;;;;;;236.97;45.17;;;4.20;99.90;;;;;;5048657;28;20250;-66
2022/01/18 08:37:52;;;;;;;285.80;46.27;;;4.30;99.90;;;;;;5042647;28;20862;-65
2022/01/18 08:40:22;;;;;;;177.60;40.70;;;4.30;99.90;;;;;;5040954;28;20258;-65
2022/01/18 08:42:51;;;;;;;257.07;45.80;;;4.30;99.90;;;;;;5039849;28;20197;-65
2022/01/18 08:45:20;;;;;;;174.57;41.40;;;4.40;99.90;;;;;;5043422;28;20224;-65
2022/01/18 08:47:50;;;;;;;185.70;40.50;;;4.30;99.90;;;;;;5042707;28;20204;-65
2022/01/18 08:50:19;;;;;;;162.13;41.40;;;4.40;99.90;;;;;;5044227;28;20205;-65
2022/01/18 08:52:51;;;;;;;183.73;43.50;;;4.50;99.90;;;;;;5043289;28;20664;-66
2022/01/18 08:55:20;;;;;;;263.53;44.40;;;4.60;99.90;;;;;;5042219;28;20208;-65
2022/01/18 08:57:50;;;;;;;243.40;41.57;;;4.60;99.90;;;;;;5045311;28;20211;-66
2022/01/18 09:00:20;;;;;;;266.10;44.33;;;4.60;99.90;;;;;;5045624;28;20612;-66
2022/01/18 09:02:49;;;;;;;222.27;44.13;;;4.60;99.90;;;;;;5046332;28;20279;-66
2022/01/18 09:05:21;;;;;;;180.27;40.50;;;4.70;99.90;;;;;;5045651;28;20208;-65
2022/01/18 09:07:51;;;;;;;176.93;41.20;;;4.70;99.90;;;;;;5048688;28;20708;-66
2022/01/18 09:10:23;;;;;;;222.30;43.20;;;4.80;99.90;;;;;;5034933;28;20204;-66
2022/01/18 09:12:53;;;;;;;176.17;41.10;;;4.80;99.90;;;;;;5041509;28;20224;-67
2022/01/18 09:15:24;;;;;;;209.67;40.83;;;4.80;99.90;;;;;;5042337;28;20207;-66
2022/01/18 09:17:53;;;;;;;200.33;41.37;;;4.80;99.90;;;;;;5042675;28;20698;-65
2022/01/18 09:20:24;;;;;;;318.07;47.23;;;4.80;99.90;;;;;;5042338;28;20625;-65
2022/01/18 09:22:53;;;;;;;252.57;44.40;;;4.80;99.90;;;;;;5048310;28;20224;-66
2022/01/18 09:25:24;;;;;;;237.17;46.53;;;4.90;99.90;;;;;;5049536;28;20228;-65
2022/01/18 09:27:57;;;;;;;294.97;46.27;;;4.90;99.90;;;;;;5034942;28;20194;-66
2022/01/18 09:30:31;;;;;;;303.70;77.43;;;4.90;99.90;;;;;;5043398;28;20192;-66
2022/01/18 09:33:01;;;;;;;289.27;61.07;;;4.90;99.90;;;;;;5048508;28;20228;-66
2022/01/18 09:35:30;;;;;;;277.93;51.40;;;4.90;99.90;;;;;;5043261;28;20184;-66
2022/01/18 09:37:58;;;;;;;270.93;55.63;;;5.00;99.90;;;;;;5041152;28;20283;-66
2022/01/18 09:40:28;;;;;;;327.17;52.47;;;5.00;99.90;;;;;;5043623;28;20699;-66
2022/01/18 09:43:01;;;;;;;290.93;53.00;;;5.00;99.90;;;;;;5048994;28;20262;-66
2022/01/18 09:45:31;;;;;;;284.33;53.57;;;5.00;99.90;;;;;;5046653;28;20333;-65
2022/01/18 09:48:00;;;;;;;268.10;50.67;;;5.00;99.90;;;;;;5040572;28;20197;-66
2022/01/18 09:50:33;;;;;;;259.63;48.00;;;5.00;99.90;;;;;;5040926;28;21536;-66
2022/01/18 09:53:04;;;;;;;268.43;51.40;;;5.10;99.90;;;;;;5041808;28;20885;-66
2022/01/18 09:55:34;;;;;;;222.80;48.03;;;5.20;99.90;;;;;;5040602;28;20197;-66
2022/01/18 09:58:07;;;;;;;244.17;50.27;;;5.20;99.90;;;;;;5045726;28;20200;-66
2022/01/18 10:00:39;;;;;;;246.87;49.33;;;5.20;99.90;;;;;;5046941;28;20631;-65
2022/01/18 10:03:26;;;;;;;304.67;49.00;;;5.30;99.90;;;;;;5042709;28;20209;-66
2022/01/18 10:05:55;;;;;;;285.43;48.30;;;5.40;99.90;;;;;;5042343;28;20235;-66
2022/01/18 10:08:25;;;;;;;307.17;49.57;;;5.40;99.90;;;;;;5045416;28;20193;-66
2022/01/18 10:10:57;;;;;;;273.20;46.10;;;5.50;99.90;;;;;;5045414;28;20247;-66
2022/01/18 10:13:29;;;;;;;221.40;40.50;;;5.50;99.90;;;;;;5038032;28;20552;-66
2022/01/18 10:16:16;;;;;;;250.53;42.57;;;5.60;99.90;;;;;;5037441;28;20189;-66
2022/01/18 10:18:48;;;;;;;247.37;44.90;;;5.50;99.90;;;;;;5043526;28;20276;-66
2022/01/18 10:21:28;;;;;;;231.70;41.73;;;5.60;99.90;;;;;;5044217;28;20185;-66
2022/01/18 10:24:17;;;;;;;254.57;42.47;;;5.60;99.90;;;;;;5039795;28;20612;-66
2022/01/18 10:26:46;;;;;;;245.03;42.63;;;5.70;99.90;;;;;;5040089;28;20829;-66
2022/01/18 10:29:19;;;;;;;220.97;41.87;;;5.70;99.90;;;;;;5049033;28;20212;-66
2022/01/18 10:31:57;;;;;;;204.67;37.13;;;5.80;99.90;;;;;;5040931;28;20197;-66
2022/01/18 10:34:42;;;;;;;185.23;35.27;;;5.90;99.90;;;;;;5041534;28;20234;-66
2022/01/18 10:37:12;;;;;;;212.67;36.33;;;6.00;99.90;;;;;;5035290;28;20754;-66
2022/01/18 10:39:42;;;;;;;181.43;33.33;;;5.90;99.90;;;;;;5045776;28;20645;-66
2022/01/18 10:42:17;;;;;;;194.73;34.27;;;5.90;99.90;;;;;;5044063;28;20204;-65
2022/01/18 10:44:49;;;;;;;227.63;39.40;;;5.90;99.90;;;;;;5037274;28;20276;-66
2022/01/18 10:47:18;;;;;;;202.57;37.27;;;5.90;99.90;;;;;;5050234;28;20243;-66
2022/01/18 10:49:48;;;;;;;191.47;37.97;;;6.00;99.90;;;;;;5048000;28;20208;-66
2022/01/18 10:52:20;;;;;;;161.57;34.23;;;6.20;99.90;;;;;;5038796;28;20201;-66
2022/01/18 10:54:51;;;;;;;179.17;35.27;;;6.20;99.90;;;;;;5046724;28;20201;-66
2022/01/18 10:57:24;;;;;;;165.13;31.03;;;6.30;99.90;;;;;;5043700;28;20243;-66
2022/01/18 10:59:58;;;;;;;164.50;30.47;;;6.30;99.90;;;;;;5048977;28;20231;-66
2022/01/18 11:02:27;;;;;;;162.23;31.40;;;6.50;99.90;;;;;;5046925;28;20214;-66
2022/01/18 11:04:57;;;;;;;134.63;30.27;;;6.60;99.90;;;;;;5042425;28;20228;-66
2022/01/18 11:07:27;;;;;;;118.00;27.43;;;6.90;99.90;;;;;;5042974;28;20212;-66
2022/01/18 11:10:03;;;;;;;143.37;28.70;;;7.00;99.90;;;;;;5044661;28;20198;-66
2022/01/18 11:12:43;;;;;;;133.60;28.93;;;7.00;99.90;;;;;;5043955;28;20205;-66
2022/01/18 11:15:19;;;;;;;135.10;30.80;;;6.90;99.90;;;;;;5043044;28;20196;-66
2022/01/18 11:17:51;;;;;;;134.93;27.67;;;6.90;99.90;;;;;;5044521;28;20216;-66
2022/01/18 11:20:21;;;;;;;144.33;33.03;;;6.90;99.90;;;;;;5045402;28;20204;-66
2022/01/18 11:22:51;;;;;;;117.23;28.63;;;6.90;99.90;;;;;;5051280;28;20283;-66
2022/01/18 11:25:21;;;;;;;112.20;27.63;;;6.80;99.90;;;;;;5044196;28;20193;-66
2022/01/18 11:27:52;;;;;;;130.30;31.00;;;6.80;99.90;;;;;;5041376;28;20221;-66
2022/01/18 11:30:25;;;;;;;139.73;30.00;;;6.80;99.90;;;;;;5046512;28;20211;-66
2022/01/18 11:32:56;;;;;;;131.70;30.67;;;6.80;99.90;;;;;;5045246;28;20339;-66
2022/01/18 11:35:32;;;;;;;141.93;31.47;;;6.80;99.90;;;;;;5046629;28;20204;-66
2022/01/18 11:38:05;;;;;;;130.03;29.93;;;6.90;99.90;;;;;;5047819;28;20261;-66
2022/01/18 11:40:45;;;;;;;119.00;28.93;;;7.00;99.90;;;;;;5046840;28;20257;-65
2022/01/18 11:43:14;;;;;;;119.03;28.83;;;7.20;99.90;;;;;;5051139;28;20279;-66
2022/01/18 11:45:44;;;;;;;112.23;29.17;;;7.40;99.90;;;;;;5043762;28;20208;-66
2022/01/18 11:48:16;;;;;;;94.23;27.80;;;7.50;99.90;;;;;;5046710;28;20221;-66
2022/01/18 11:50:49;;;;;;;85.73;27.70;;;7.40;99.90;;;;;;5041374;28;20201;-66
2022/01/18 11:53:41;;;;;;;87.57;30.83;;;7.40;99.90;;;;;;5045167;28;20223;-66
2022/01/18 11:56:14;;;;;;;88.60;28.07;;;7.40;99.90;;;;;;5038579;28;20316;-66
2022/01/18 11:58:44;;;;;;;68.93;24.30;;;7.50;99.90;;;;;;5046637;28;20224;-66
2022/01/18 12:01:17;;;;;;;78.80;26.40;;;7.60;99.90;;;;;;5043964;28;20193;-65
2022/01/18 12:03:49;;;;;;;73.10;25.17;;;7.50;99.90;;;;;;5046264;28;20734;-66
2022/01/18 12:06:44;;;;;;;70.97;23.27;;;7.60;99.90;;;;;;5030959;28;20507;-66
2022/01/18 12:09:36;;;;;;;69.53;24.17;;;7.70;99.90;;;;;;5039659;28;20276;-66
2022/01/18 12:12:09;;;;;;;65.67;24.83;;;7.70;99.90;;;;;;5042150;28;20208;-65
2022/01/18 12:14:37;;;;;;;58.47;22.03;;;7.90;99.90;;;;;;5038450;28;20209;-66
2022/01/18 12:17:17;;;;;;;64.20;22.33;;;8.00;99.90;;;;;;5042952;28;20215;-66
2022/01/18 12:19:47;;;;;;;77.63;28.47;;;8.00;99.90;;;;;;5047081;28;20194;-66
2022/01/18 12:22:16;;;;;;;69.43;29.80;;;8.10;99.90;;;;;;5045763;28;20195;-66
2022/01/18 12:24:47;;;;;;;71.23;22.73;;;8.30;99.90;;;;;;5044857;28;20255;-66
2022/01/18 12:27:29;;;;;;;59.97;21.93;;;8.30;99.90;;;;;;5044419;28;20258;-66
2022/01/18 12:30:26;;;;;;;56.37;21.83;;;8.40;99.90;;;;;;5047907;28;20250;-67
2022/01/18 12:33:17;;;;;;;61.20;21.23;;;8.50;99.90;;;;;;5038227;28;20321;-66
2022/01/18 12:35:45;;;;;;;56.97;21.13;;;8.50;99.90;;;;;;5036874;28;20280;-66
2022/01/18 12:38:23;;;;;;;52.03;19.73;;;8.70;99.90;;;;;;5040711;28;20246;-66
2022/01/18 12:40:55;;;;;;;53.57;20.20;;;8.70;99.90;;;;;;5043265;28;20626;-66
2022/01/18 12:46:16;;;;;;;60.43;23.97;;;8.80;99.90;;;;;;5036531;28;20209;-66
2022/01/18 12:48:47;;;;;;;72.33;31.53;;;8.90;99.90;;;;;;5042315;28;20228;-66
2022/01/18 12:51:17;;;;;;;49.50;20.33;;;8.90;99.90;;;;;;5040045;28;20205;-66
2022/01/18 12:53:49;;;;;;;49.40;19.33;;;8.80;99.90;;;;;;5051013;28;20292;-66
2022/01/18 12:56:18;;;;;;;49.50;19.90;;;8.80;99.90;;;;;;5042128;28;20244;-66
2022/01/18 12:58:48;;;;;;;52.83;20.60;;;8.70;99.90;;;;;;5041069;28;20193;-66
2022/01/18 13:01:20;;;;;;;221.50;96.43;;;8.70;99.90;;;;;;5045699;28;20223;-65
2022/01/18 13:03:53;;;;;;;84.27;35.63;;;8.80;99.90;;;;;;5043016;28;20209;-66
2022/01/18 13:06:24;;;;;;;63.30;25.90;;;8.90;99.90;;;;;;5042750;28;20196;-67
2022/01/18 13:08:54;;;;;;;51.37;20.93;;;9.00;99.90;;;;;;5042744;28;20573;-66
2022/01/18 13:11:24;;;;;;;59.90;21.63;;;8.90;99.90;;;;;;5046608;28;20286;-66
2022/01/18 13:13:59;;;;;;;64.77;26.07;;;8.80;99.90;;;;;;5042814;28;20207;-66
2022/01/18 13:25:04;;;;;;;63.27;20.97;;;8.50;99.90;;;;;;5044510;28;20251;-66
2022/01/18 13:27:38;;;;;;;91.83;39.10;;;8.40;99.90;;;;;;5045334;28;20188;-66
2022/01/18 13:30:16;;;;;;;61.13;25.83;;;8.40;99.90;;;;;;5047218;28;20189;-66
2022/01/18 13:32:45;;;;;;;58.70;22.23;;;8.30;99.90;;;;;;5041724;28;20228;-66
2022/01/18 13:35:19;;;;;;;66.73;25.47;;;8.30;99.90;;;;;;5039369;28;20237;-67
2022/01/18 13:37:47;;;;;;;69.00;23.40;;;8.30;99.90;;;;;;5046470;28;20197;-66
2022/01/18 13:40:18;;;;;;;71.13;23.40;;;8.30;99.90;;;;;;5047361;28;20308;-67
2022/01/18 13:42:49;;;;;;;63.33;22.03;;;8.40;99.90;;;;;;5040498;28;20197;-66
2022/01/18 13:45:20;;;;;;;72.20;24.83;;;8.40;99.90;;;;;;5046446;28;20189;-66
2022/01/18 13:47:51;;;;;;;68.77;25.10;;;8.40;99.90;;;;;;5045083;28;20245;-66
2022/01/18 13:50:42;;;;;;;59.47;21.67;;;8.40;99.90;;;;;;5037866;28;20188;-66
2022/01/18 13:53:14;;;;;;;54.90;21.47;;;8.40;99.90;;;;;;5042407;28;20200;-67
2022/01/18 13:55:49;;;;;;;61.07;20.77;;;8.30;99.90;;;;;;5045567;28;20204;-66
2022/01/18 13:58:22;;;;;;;60.93;21.10;;;8.30;99.90;;;;;;5042593;28;20226;-66
2022/01/18 14:00:51;;;;;;;57.43;20.67;;;8.30;99.90;;;;;;5048151;28;20197;-66
2022/01/18 14:03:30;;;;;;;55.00;19.53;;;8.40;99.90;;;;;;5051885;28;20270;-66